Time;durP1;ratioP1;P1;durP2;ratioP2;P2;SDS_P1;SDS_P2;PMS_P1;PMS_P2;Temp;Humidity;BMP_temperature;BMP_pressure;BME280_temperature;BME280_humidity;BME280_pressure;Samples;Min_cycle;Max_cycle;Signal;HPM_P1;HPM_P2
2020/12/28 00:00:33;;;;;;;11.17;8.80;;;5.60;99.90;;;-146.47;100.00;66290.13;4944012;29;20210;-78
2020/12/28 00:03:18;;;;;;;11.57;8.43;;;5.60;99.90;;;-146.47;100.00;66290.13;4941257;29;20832;-77
2020/12/28 00:06:04;;;;;;;13.00;10.10;;;5.60;99.90;;;-146.47;100.00;66290.13;4943424;29;20278;-78
2020/12/28 00:08:49;;;;;;;14.77;9.83;;;5.60;99.90;;;-146.47;100.00;66290.13;4931070;29;20238;-77
2020/12/28 00:11:34;;;;;;;12.43;9.70;;;5.60;99.90;;;-146.47;100.00;66290.13;4930680;29;20215;-78
2020/12/28 00:14:21;;;;;;;13.87;9.80;;;5.60;99.90;;;-146.47;100.00;66290.13;4929629;29;20685;-78
2020/12/28 00:17:10;;;;;;;13.03;11.40;;;5.60;99.90;;;-146.47;100.00;66290.13;4935994;29;20226;-79
2020/12/28 00:19:55;;;;;;;14.07;11.93;;;5.60;99.90;;;-146.47;100.00;66290.13;4937839;29;20255;-79
2020/12/28 00:22:40;;;;;;;14.23;10.47;;;5.60;99.90;;;-146.47;100.00;66290.13;4938034;29;20278;-78
2020/12/28 00:25:28;;;;;;;14.93;11.40;;;5.60;99.90;;;-146.47;100.00;66290.13;4933672;29;20259;-79
2020/12/28 00:28:13;;;;;;;13.50;10.47;;;5.60;99.90;;;-146.47;100.00;66290.13;4934553;29;20210;-78
2020/12/28 00:30:59;;;;;;;12.83;10.30;;;5.70;99.90;;;-146.47;100.00;66290.13;4931352;29;20259;-78
2020/12/28 00:33:44;;;;;;;12.17;9.57;;;5.70;99.90;;;-146.47;100.00;66290.13;4936007;29;20741;-79
2020/12/28 00:36:30;;;;;;;13.37;10.90;;;5.70;99.90;;;-146.47;100.00;66290.13;4926150;29;20277;-80
2020/12/28 00:39:15;;;;;;;12.53;9.10;;;5.70;99.90;;;-146.47;100.00;66290.13;4934404;29;20641;-80
2020/12/28 00:42:00;;;;;;;13.27;9.80;;;5.70;99.90;;;-146.47;100.00;66290.13;4927062;29;20230;-79
2020/12/28 00:44:45;;;;;;;10.80;8.67;;;5.70;99.90;;;-146.47;100.00;66290.13;4940062;29;20245;-79
2020/12/28 00:47:31;;;;;;;12.27;9.10;;;5.70;99.90;;;-146.47;100.00;66290.13;4937109;29;20219;-80
2020/12/28 00:50:17;;;;;;;12.73;9.07;;;5.70;99.90;;;-146.47;100.00;66290.13;4937162;29;20799;-80
2020/12/28 00:53:02;;;;;;;14.43;8.77;;;5.70;99.90;;;-146.47;100.00;66290.13;4938795;29;20238;-79
2020/12/28 00:55:47;;;;;;;10.57;7.77;;;5.70;99.90;;;-146.47;100.00;66290.13;4933330;29;20291;-78
2020/12/28 00:58:35;;;;;;;11.20;8.00;;;5.70;99.90;;;-146.47;100.00;66290.13;4934680;29;20213;-79
2020/12/28 01:01:20;;;;;;;11.27;9.07;;;5.70;99.90;;;-146.47;100.00;66290.13;4938498;29;20585;-79
2020/12/28 01:04:06;;;;;;;11.93;8.37;;;5.70;99.90;;;-146.47;100.00;66290.13;4931877;29;20873;-78
2020/12/28 01:06:52;;;;;;;9.77;7.43;;;5.70;99.90;;;-146.47;100.00;66290.13;4932712;29;20709;-80
2020/12/28 01:09:37;;;;;;;10.13;8.23;;;5.70;99.90;;;-146.47;100.00;66290.13;4938279;29;20222;-79
2020/12/28 01:12:22;;;;;;;9.30;7.47;;;5.70;99.90;;;-146.47;100.00;66290.13;4934040;29;20254;-79
2020/12/28 01:15:07;;;;;;;10.10;8.43;;;5.80;99.90;;;-146.47;100.00;66290.13;4933154;29;20775;-78
2020/12/28 01:17:55;;;;;;;9.10;7.40;;;5.70;99.90;;;-146.47;100.00;66290.13;4928160;29;20222;-78
2020/12/28 01:20:40;;;;;;;9.57;7.20;;;5.70;99.90;;;-146.47;100.00;66290.13;4930881;29;20206;-80
2020/12/28 01:23:25;;;;;;;10.03;8.47;;;5.70;99.90;;;-146.47;100.00;66290.13;4932228;29;20274;-79
2020/12/28 01:26:11;;;;;;;10.27;7.80;;;5.70;99.90;;;-146.47;100.00;66290.13;4932692;29;20294;-80
2020/12/28 01:28:56;;;;;;;10.30;7.70;;;5.70;99.90;;;-146.47;100.00;66290.13;4932721;29;20214;-78
2020/12/28 01:31:41;;;;;;;10.50;7.90;;;5.70;99.90;;;-146.47;100.00;66290.13;4935721;29;20210;-79
2020/12/28 01:34:27;;;;;;;9.00;7.20;;;5.80;99.90;;;-146.47;100.00;66290.13;4932898;29;20345;-81
2020/12/28 01:37:13;;;;;;;9.47;7.90;;;5.70;99.90;;;-146.47;100.00;66290.13;4930406;29;20219;-79
2020/12/28 01:39:58;;;;;;;9.67;7.47;;;5.80;99.90;;;-146.47;100.00;66290.13;4932260;29;20210;-78
2020/12/28 01:42:43;;;;;;;11.00;7.67;;;5.80;99.90;;;-146.47;100.00;66290.13;4930081;29;20222;-81
2020/12/28 01:45:28;;;;;;;10.37;8.07;;;5.80;99.90;;;-146.47;100.00;66290.13;4937763;29;20246;-79
2020/12/28 01:48:14;;;;;;;8.23;7.10;;;5.80;99.90;;;-146.47;100.00;66290.13;4937478;29;20210;-79
2020/12/28 01:50:59;;;;;;;10.97;8.10;;;5.80;99.90;;;-146.47;100.00;66290.13;4927807;29;20215;-80
2020/12/28 01:53:46;;;;;;;8.87;7.83;;;5.80;99.90;;;-146.47;100.00;66290.13;4936534;29;20226;-80
2020/12/28 01:56:34;;;;;;;10.30;8.13;;;5.80;99.90;;;-146.47;100.00;66290.13;4937902;29;20701;-79
2020/12/28 01:59:19;;;;;;;10.23;7.90;;;5.80;99.90;;;-146.47;100.00;66290.13;4926820;29;20225;-79
2020/12/28 02:02:08;;;;;;;11.97;7.47;;;5.80;99.90;;;-146.47;100.00;66290.13;4938147;29;20284;-78
2020/12/28 02:04:53;;;;;;;9.63;7.37;;;5.80;99.90;;;-146.47;100.00;66290.13;4933995;29;20270;-79
2020/12/28 02:07:40;;;;;;;10.47;7.43;;;5.80;99.90;;;-146.47;100.00;66290.13;4941716;29;20222;-80
2020/12/28 02:10:25;;;;;;;7.70;6.90;;;5.80;99.90;;;-146.47;100.00;66290.13;4934730;29;20211;-79
2020/12/28 02:13:11;;;;;;;9.67;7.43;;;5.80;99.90;;;-146.47;100.00;66290.13;4941145;29;20231;-79
2020/12/28 02:15:56;;;;;;;8.73;6.87;;;5.80;99.90;;;-146.47;100.00;66290.13;4941357;29;20234;-79
2020/12/28 02:18:41;;;;;;;10.67;7.47;;;5.80;99.90;;;-146.47;100.00;66290.13;4935504;29;20215;-79
2020/12/28 02:21:26;;;;;;;9.50;7.40;;;5.80;99.90;;;-146.47;100.00;66290.13;4941872;29;20717;-79
2020/12/28 02:24:16;;;;;;;9.97;7.03;;;5.80;99.90;;;-146.47;100.00;66290.13;4940396;29;20603;-79
2020/12/28 02:27:01;;;;;;;8.83;6.13;;;5.80;99.90;;;-146.47;100.00;66290.13;4938335;29;20210;-78
2020/12/28 02:29:46;;;;;;;9.07;6.90;;;5.80;99.90;;;-146.47;100.00;66290.13;4940186;29;20207;-79
2020/12/28 02:32:32;;;;;;;9.53;7.00;;;5.80;99.90;;;-146.47;100.00;66290.13;4940721;29;20206;-79
2020/12/28 02:35:17;;;;;;;9.27;7.30;;;5.80;99.90;;;-146.47;100.00;66290.13;4932584;29;20212;-79
2020/12/28 02:38:02;;;;;;;11.43;7.10;;;5.80;99.90;;;-146.47;100.00;66290.13;4941418;29;20274;-79
2020/12/28 02:40:48;;;;;;;10.43;7.10;;;5.80;99.90;;;-146.47;100.00;66290.13;4938222;29;20229;-78
2020/12/28 02:43:34;;;;;;;9.63;7.97;;;5.80;99.90;;;-146.47;100.00;66290.13;4930296;29;20234;-80
2020/12/28 02:46:19;;;;;;;9.67;7.03;;;5.80;99.90;;;-146.47;100.00;66290.13;4940576;29;20282;-79
2020/12/28 02:49:04;;;;;;;12.83;8.27;;;5.80;99.90;;;-146.47;100.00;66290.13;4935309;29;20254;-78
2020/12/28 02:51:49;;;;;;;11.07;8.40;;;5.80;99.90;;;-146.47;100.00;66290.13;4943413;29;20585;-78
2020/12/28 02:54:35;;;;;;;13.87;8.50;;;5.80;99.90;;;-146.47;100.00;66290.13;4941448;29;20258;-79
2020/12/28 02:57:21;;;;;;;12.10;8.50;;;5.80;99.90;;;-146.47;100.00;66290.13;4940759;29;20583;-78
2020/12/28 03:00:07;;;;;;;12.37;8.10;;;5.80;99.90;;;-146.47;100.00;66290.13;4929007;29;20570;-79
2020/12/28 03:02:52;;;;;;;14.87;9.63;;;5.80;99.90;;;-146.47;100.00;66290.13;4940250;29;20235;-80
2020/12/28 03:05:37;;;;;;;11.70;8.67;;;5.80;99.90;;;-146.47;100.00;66290.13;4933621;29;20738;-80
2020/12/28 03:08:22;;;;;;;9.70;7.63;;;5.80;99.90;;;-146.47;100.00;66290.13;4940859;29;20288;-80
2020/12/28 03:11:07;;;;;;;13.53;9.00;;;5.80;99.90;;;-146.47;100.00;66290.13;4940468;29;20218;-80
2020/12/28 03:13:53;;;;;;;12.37;9.17;;;5.80;99.90;;;-146.47;100.00;66290.13;4940058;29;20249;-80
2020/12/28 03:16:39;;;;;;;11.20;8.87;;;5.80;99.90;;;-146.47;100.00;66290.13;4938377;29;20290;-80
2020/12/28 03:19:24;;;;;;;11.43;8.60;;;5.80;99.90;;;-146.47;100.00;66290.13;4932287;29;20269;-81
2020/12/28 03:22:09;;;;;;;12.67;8.67;;;5.80;99.90;;;-146.47;100.00;66290.13;4938221;29;20757;-79
2020/12/28 03:24:54;;;;;;;16.23;9.00;;;5.80;99.90;;;-146.47;100.00;66290.13;4939445;29;20213;-81
2020/12/28 03:27:39;;;;;;;11.13;8.53;;;5.80;99.90;;;-146.47;100.00;66290.13;4930630;29;20210;-78
2020/12/28 03:30:25;;;;;;;12.93;6.17;;;5.80;99.90;;;-146.47;100.00;66290.13;4938962;29;20223;-80
2020/12/28 03:33:11;;;;;;;12.80;8.63;;;5.80;99.90;;;-146.47;100.00;66290.13;4939323;29;20716;-80
2020/12/28 03:35:56;;;;;;;13.70;8.90;;;5.80;99.90;;;-146.47;100.00;66290.13;4938947;29;20215;-81
2020/12/28 03:38:41;;;;;;;16.83;9.87;;;5.80;99.90;;;-146.47;100.00;66290.13;4939579;29;20250;-80
2020/12/28 03:41:26;;;;;;;13.77;9.40;;;5.70;99.90;;;-146.47;100.00;66290.13;4929403;29;20246;-79
2020/12/28 03:44:11;;;;;;;15.70;9.57;;;5.80;99.90;;;-146.47;100.00;66290.13;4935902;29;20732;-79
2020/12/28 03:46:58;;;;;;;11.63;9.20;;;5.80;99.90;;;-146.47;100.00;66290.13;4939347;29;20300;-80
2020/12/28 03:49:43;;;;;;;16.37;10.10;;;5.70;99.90;;;-146.47;100.00;66290.13;4927238;29;20218;-80
2020/12/28 03:52:28;;;;;;;15.73;9.80;;;5.70;99.90;;;-146.47;100.00;66290.13;4936383;29;20342;-80
2020/12/28 03:55:13;;;;;;;14.43;9.47;;;5.70;99.90;;;-146.47;100.00;66290.13;4939018;29;20210;-79
2020/12/28 03:57:58;;;;;;;13.70;9.50;;;5.70;99.90;;;-146.47;100.00;66290.13;4926307;29;20210;-80
2020/12/28 04:00:44;;;;;;;15.30;9.57;;;5.70;99.90;;;-146.47;100.00;66290.13;4934691;29;20242;-82
2020/12/28 04:03:30;;;;;;;12.87;9.53;;;5.70;99.90;;;-146.47;100.00;66290.13;4937874;29;20234;-79
2020/12/28 04:06:15;;;;;;;16.37;8.93;;;5.60;99.90;;;-146.47;100.00;66290.13;4937735;29;20214;-79
2020/12/28 04:09:00;;;;;;;14.03;8.47;;;5.60;99.90;;;-146.47;100.00;66290.13;4925082;29;20300;-79
2020/12/28 04:11:45;;;;;;;9.60;7.20;;;5.60;99.90;;;-146.47;100.00;66290.13;4929828;29;20255;-79
2020/12/28 04:14:30;;;;;;;10.10;7.70;;;5.50;99.90;;;-146.47;100.00;66290.13;4937127;29;20654;-79
2020/12/28 04:17:15;;;;;;;10.90;8.07;;;5.50;99.90;;;-146.47;100.00;66290.13;4927949;29;20206;-79
2020/12/28 04:20:04;;;;;;;11.37;7.17;;;5.40;99.90;;;-146.47;100.00;66290.13;4933348;29;20263;-80
2020/12/28 04:22:49;;;;;;;9.90;7.33;;;5.30;99.90;;;-146.47;100.00;66290.13;4940235;29;20234;-80
2020/12/28 04:25:34;;;;;;;11.23;7.37;;;5.20;99.90;;;-146.47;100.00;66290.13;4934948;29;20214;-80
2020/12/28 04:28:20;;;;;;;13.77;7.47;;;5.20;99.90;;;-146.47;100.00;66290.13;4938876;29;20254;-80
2020/12/28 04:31:09;;;;;;;10.87;7.53;;;5.10;99.90;;;-146.47;100.00;66290.13;4933143;29;20335;-79
2020/12/28 04:33:54;;;;;;;12.17;7.40;;;5.00;99.90;;;-146.47;100.00;66290.13;4938516;29;20355;-79
2020/12/28 04:36:40;;;;;;;12.63;7.30;;;5.00;99.90;;;-146.47;100.00;66290.13;4935868;29;20246;-82
2020/12/28 04:39:26;;;;;;;10.50;6.77;;;4.90;99.90;;;-146.47;100.00;66290.13;4937935;29;20605;-80
2020/12/28 04:42:11;;;;;;;11.03;7.87;;;4.80;99.90;;;-146.47;100.00;66290.13;4933392;29;20602;-78
2020/12/28 04:44:58;;;;;;;11.23;7.87;;;4.70;99.90;;;-146.47;100.00;66290.13;4937618;29;20222;-79
2020/12/28 04:47:42;;;;;;;15.50;8.57;;;4.70;99.90;;;-146.47;100.00;66290.13;4938187;29;20270;-78
2020/12/28 04:50:28;;;;;;;12.53;7.27;;;4.60;99.90;;;-146.47;100.00;66290.13;4935997;29;20219;-78
2020/12/28 04:53:14;;;;;;;11.03;7.53;;;4.50;99.90;;;-146.47;100.00;66290.13;4934388;29;20315;-79
2020/12/28 04:55:59;;;;;;;11.13;8.00;;;4.50;99.90;;;-146.47;100.00;66290.13;4935995;29;20307;-80
2020/12/28 04:58:44;;;;;;;12.33;8.47;;;4.40;99.90;;;-146.47;100.00;66290.13;4937128;29;20571;-78
2020/12/28 05:01:30;;;;;;;12.93;7.10;;;4.40;99.90;;;-146.47;100.00;66290.13;4924066;29;20206;-77
2020/12/28 05:04:15;;;;;;;10.73;7.10;;;4.30;99.90;;;-146.47;100.00;66290.13;4932432;29;20725;-79
2020/12/28 05:07:02;;;;;;;11.37;7.43;;;4.20;99.90;;;-146.47;100.00;66290.13;4937644;29;20242;-78
2020/12/28 05:09:48;;;;;;;12.30;8.00;;;4.20;99.90;;;-146.47;100.00;66290.13;4938006;29;20214;-77
2020/12/28 05:12:33;;;;;;;11.67;8.10;;;4.20;99.90;;;-146.47;100.00;66290.13;4933958;29;20565;-79
2020/12/28 05:15:19;;;;;;;12.70;6.80;;;4.10;99.90;;;-146.47;100.00;66290.13;4936418;29;20213;-78
2020/12/28 05:18:08;;;;;;;9.60;6.37;;;4.00;99.90;;;-146.47;100.00;66290.13;4931166;29;20215;-79
2020/12/28 05:20:53;;;;;;;13.50;7.70;;;4.00;99.90;;;-146.47;100.00;66290.13;4930171;29;20219;-79
2020/12/28 05:23:38;;;;;;;13.77;8.27;;;3.90;99.90;;;-146.47;100.00;66290.13;4932993;29;20608;-80
2020/12/28 05:26:26;;;;;;;10.97;7.37;;;3.90;99.90;;;-146.47;100.00;66290.13;4933594;29;20210;-80
2020/12/28 05:29:16;;;;;;;9.23;7.07;;;3.80;99.90;;;-146.47;100.00;66290.13;4924261;29;20339;-77
2020/12/28 05:32:00;;;;;;;11.77;7.53;;;3.80;99.90;;;-146.47;100.00;66290.13;4932330;29;20291;-78
2020/12/28 05:34:47;;;;;;;12.60;7.93;;;3.70;99.90;;;-146.47;100.00;66290.13;4936700;29;20290;-78
2020/12/28 05:37:33;;;;;;;11.73;8.33;;;3.70;99.90;;;-146.47;100.00;66290.13;4943172;29;20219;-76
2020/12/28 05:40:18;;;;;;;13.53;8.40;;;3.70;99.90;;;-146.47;100.00;66290.13;4943513;29;20221;-79
2020/12/28 05:43:05;;;;;;;13.07;9.57;;;3.60;99.90;;;-146.47;100.00;66290.13;4935189;29;20223;-80
2020/12/28 05:45:50;;;;;;;16.53;9.80;;;3.60;99.90;;;-146.47;100.00;66290.13;4940750;29;20276;-81
2020/12/28 05:48:36;;;;;;;18.57;10.20;;;3.60;99.90;;;-146.47;100.00;66290.13;4941834;29;20215;-79
2020/12/28 05:51:22;;;;;;;19.30;10.30;;;3.60;99.90;;;-146.47;100.00;66290.13;4925796;29;20287;-79
2020/12/28 05:54:11;;;;;;;18.23;11.67;;;3.60;99.90;;;-146.47;100.00;66290.13;4937983;29;20282;-80
2020/12/28 05:56:57;;;;;;;19.93;11.63;;;3.70;99.90;;;-146.47;100.00;66290.13;4942142;29;20238;-79
2020/12/28 05:59:43;;;;;;;19.80;12.57;;;3.70;99.90;;;-146.47;100.00;66290.13;4928724;29;20263;-79
2020/12/28 06:02:29;;;;;;;21.73;12.17;;;3.70;99.90;;;-146.47;100.00;66290.13;4938936;29;20640;-79
2020/12/28 06:05:17;;;;;;;22.70;13.57;;;3.80;99.90;;;-146.47;100.00;66290.13;4931638;29;20644;-79
2020/12/28 06:08:03;;;;;;;20.10;13.83;;;3.90;99.90;;;-146.47;100.00;66290.13;4930002;29;20255;-78
2020/12/28 06:10:48;;;;;;;20.20;11.77;;;3.90;99.90;;;-146.47;100.00;66290.13;4927383;29;20277;-78
2020/12/28 06:13:34;;;;;;;18.47;11.73;;;3.90;99.90;;;-146.47;100.00;66290.13;4927223;29;20235;-79
2020/12/28 06:16:23;;;;;;;19.57;11.70;;;4.00;99.90;;;-146.47;100.00;66290.13;4940191;29;20648;-79
2020/12/28 06:19:22;;;;;;;20.07;11.57;;;4.00;99.90;;;-146.47;100.00;66290.13;4933621;29;20214;-79
2020/12/28 06:22:19;;;;;;;23.33;12.27;;;4.00;99.90;;;-146.47;100.00;66290.13;4939374;29;20223;-79
2020/12/28 06:25:07;;;;;;;22.67;11.63;;;4.00;99.90;;;-146.47;100.00;66290.13;4939925;29;20339;-80
2020/12/28 06:27:52;;;;;;;22.77;11.07;;;4.10;99.90;;;-146.47;100.00;66290.13;4938828;29;20940;-79
2020/12/28 06:30:37;;;;;;;20.17;11.20;;;4.10;99.90;;;-146.47;100.00;66290.13;4940478;29;20265;-78
2020/12/28 06:33:23;;;;;;;21.00;10.77;;;4.10;99.90;;;-146.47;100.00;66290.13;4943500;29;20259;-78
2020/12/28 06:36:15;;;;;;;20.10;11.03;;;4.10;99.90;;;-146.47;100.00;66290.13;4943057;29;20218;-78
2020/12/28 06:39:01;;;;;;;22.60;9.40;;;4.20;99.90;;;-146.47;100.00;66290.13;4942246;29;20214;-78
2020/12/28 06:41:45;;;;;;;17.33;10.73;;;4.20;99.90;;;-146.47;100.00;66290.13;4946288;29;20210;-78
2020/12/28 06:44:32;;;;;;;17.87;10.00;;;4.20;99.90;;;-146.47;100.00;66290.13;4930876;29;20250;-81
2020/12/28 06:47:21;;;;;;;18.73;10.10;;;4.20;99.90;;;-146.47;100.00;66290.13;4941132;29;20231;-78
2020/12/28 06:50:07;;;;;;;15.30;9.37;;;4.20;99.90;;;-146.47;100.00;66290.13;4930318;29;20240;-78
2020/12/28 06:52:53;;;;;;;16.93;9.83;;;4.20;99.90;;;-146.47;100.00;66290.13;4926934;29;20748;-78
2020/12/28 06:55:38;;;;;;;18.87;9.10;;;4.20;99.90;;;-146.47;100.00;66290.13;4939819;29;20746;-79
2020/12/28 06:58:23;;;;;;;17.83;8.97;;;4.20;99.90;;;-146.47;100.00;66290.13;4942466;29;20762;-80
2020/12/28 07:01:08;;;;;;;14.90;9.53;;;4.30;99.90;;;-146.47;100.00;66290.13;4941056;29;20212;-79
2020/12/28 07:03:55;;;;;;;18.80;8.97;;;4.20;99.90;;;-146.47;100.00;66290.13;4934074;29;20234;-80
2020/12/28 07:06:41;;;;;;;14.83;7.83;;;4.20;99.90;;;-146.47;100.00;66290.13;4929477;29;20239;-80
2020/12/28 07:09:26;;;;;;;18.80;8.50;;;4.20;99.90;;;-146.47;100.00;66290.13;4941283;29;20234;-79
2020/12/28 07:12:11;;;;;;;12.50;6.77;;;4.10;99.90;;;-146.47;100.00;66290.13;4935219;29;20215;-78
2020/12/28 07:15:04;;;;;;;11.03;7.53;;;4.10;99.90;;;-146.47;100.00;66290.13;4928699;29;20206;-79
2020/12/28 07:17:49;;;;;;;9.60;7.20;;;4.00;99.90;;;-146.47;100.00;66290.13;4931394;29;20266;-79
2020/12/28 07:20:35;;;;;;;13.20;7.50;;;4.00;99.90;;;-146.47;100.00;66290.13;4927739;29;20206;-79
2020/12/28 07:23:24;;;;;;;10.73;6.43;;;3.90;99.90;;;-146.47;100.00;66290.13;4925391;29;20254;-79
2020/12/28 07:26:12;;;;;;;18.33;8.83;;;3.90;99.90;;;-146.47;100.00;66290.13;4926924;29;20572;-78
2020/12/28 07:28:57;;;;;;;17.30;8.57;;;4.00;99.90;;;-146.47;100.00;66290.13;4929764;29;20222;-78
2020/12/28 07:31:43;;;;;;;14.37;8.40;;;3.90;99.90;;;-146.47;100.00;66290.13;4929846;29;20211;-79
2020/12/28 07:34:28;;;;;;;14.53;8.73;;;3.90;99.90;;;-146.47;100.00;66290.13;4920484;29;20258;-79
2020/12/28 07:37:14;;;;;;;16.13;8.93;;;4.00;99.90;;;-146.47;100.00;66290.13;4924283;29;20214;-79
2020/12/28 07:40:00;;;;;;;15.50;8.40;;;4.00;99.90;;;-146.47;100.00;66290.13;4927918;29;20222;-79
2020/12/28 07:42:45;;;;;;;17.80;9.97;;;4.00;99.90;;;-146.47;100.00;66290.13;4934786;29;20351;-79
2020/12/28 07:45:31;;;;;;;17.60;8.80;;;4.00;99.90;;;-146.47;100.00;66290.13;4925726;29;20211;-80
2020/12/28 07:48:20;;;;;;;16.60;9.37;;;4.10;99.90;;;-146.47;100.00;66290.13;4927599;29;20210;-79
2020/12/28 07:51:08;;;;;;;13.60;8.57;;;4.10;99.90;;;-146.47;100.00;66290.13;4934352;29;20207;-79
2020/12/28 07:54:04;;;;;;;14.60;9.70;;;4.10;99.90;;;-146.47;100.00;66290.13;4925581;29;20670;-80
2020/12/28 07:56:58;;;;;;;12.80;9.47;;;4.20;99.90;;;-146.47;100.00;66290.13;4932433;29;20215;-80
2020/12/28 08:00:03;;;;;;;12.63;8.47;;;4.20;99.90;;;-146.47;100.00;66290.13;4927066;29;20223;-80
2020/12/28 08:03:13;;;;;;;10.27;5.77;;;4.20;99.90;;;-146.47;100.00;66290.13;4930897;29;20222;-79
2020/12/28 08:06:06;;;;;;;9.77;6.83;;;4.30;99.90;;;-146.47;100.00;66290.13;4939907;29;20340;-80
2020/12/28 08:09:00;;;;;;;10.13;7.20;;;4.30;99.90;;;-146.47;100.00;66290.13;4933029;29;20243;-79
2020/12/28 08:11:45;;;;;;;13.50;8.13;;;4.30;99.90;;;-146.47;100.00;66290.13;4918818;29;20246;-79
2020/12/28 08:14:31;;;;;;;16.47;7.83;;;4.30;99.90;;;-146.47;100.00;66290.13;4929513;29;20242;-78
2020/12/28 08:17:16;;;;;;;12.50;8.20;;;4.20;99.90;;;-146.47;100.00;66290.13;4926988;29;20208;-78
2020/12/28 08:20:07;;;;;;;10.17;6.37;;;4.20;99.90;;;-146.47;100.00;66290.13;4927491;29;20591;-78
2020/12/28 08:22:53;;;;;;;11.67;6.83;;;4.20;99.90;;;-146.47;100.00;66290.13;4935844;29;20230;-78
2020/12/28 08:25:38;;;;;;;12.13;7.17;;;4.20;99.90;;;-146.47;100.00;66290.13;4919971;29;20219;-80
2020/12/28 08:28:23;;;;;;;11.47;7.33;;;4.20;99.90;;;-146.47;100.00;66290.13;4929458;29;20229;-80
2020/12/28 08:31:13;;;;;;;10.13;6.97;;;4.20;99.90;;;-146.47;100.00;66290.13;4934965;29;20246;-80
2020/12/28 08:34:00;;;;;;;10.50;6.73;;;4.20;99.90;;;-146.47;100.00;66290.13;4934168;29;20278;-80
2020/12/28 08:36:53;;;;;;;11.47;7.40;;;4.20;99.90;;;-146.47;100.00;66290.13;4929156;29;20896;-79
2020/12/28 08:39:38;;;;;;;10.87;6.30;;;4.20;99.90;;;-146.47;100.00;66290.13;4927999;29;20258;-79
2020/12/28 08:42:31;;;;;;;12.00;7.50;;;4.20;99.90;;;-146.47;100.00;66290.13;4928245;29;20710;-80
2020/12/28 08:45:22;;;;;;;8.93;7.00;;;4.20;99.90;;;-146.47;100.00;66290.13;4924430;29;20263;-79
2020/12/28 08:48:07;;;;;;;9.67;7.13;;;4.20;99.90;;;-146.47;100.00;66290.13;4928244;29;20217;-81
2020/12/28 08:50:52;;;;;;;14.90;6.90;;;4.20;99.90;;;-146.47;100.00;66290.13;4931557;29;20215;-79
2020/12/28 08:53:38;;;;;;;13.73;6.57;;;4.20;99.90;;;-146.47;100.00;66290.13;4927067;29;20290;-80
2020/12/28 08:56:23;;;;;;;10.10;6.53;;;4.20;99.90;;;-146.47;100.00;66290.13;4922373;29;20872;-79
2020/12/28 08:59:08;;;;;;;11.37;7.03;;;4.20;99.90;;;-146.47;100.00;66290.13;4932944;29;20218;-80
2020/12/28 09:01:54;;;;;;;11.10;7.00;;;4.30;99.90;;;-146.47;100.00;66290.13;4923075;29;20591;-81
2020/12/28 09:04:40;;;;;;;11.00;7.43;;;4.30;99.90;;;-146.47;100.00;66290.13;4932317;29;20231;-80
2020/12/28 09:07:26;;;;;;;12.73;7.80;;;4.40;99.90;;;-146.47;100.00;66290.13;4934506;29;20771;-81
2020/12/28 09:10:11;;;;;;;12.40;8.20;;;4.50;99.90;;;-146.47;100.00;66290.13;4945891;29;20219;-81
2020/12/28 09:12:56;;;;;;;10.43;6.97;;;4.60;99.90;;;-146.47;100.00;66290.13;4955029;28;20225;-82
2020/12/28 09:15:41;;;;;;;14.97;7.70;;;4.80;99.90;;;-146.47;100.00;66290.13;4945880;29;20684;-78
2020/12/28 09:18:27;;;;;;;12.47;7.27;;;4.90;99.90;;;-146.47;100.00;66290.13;4933186;29;20235;-79
2020/12/28 09:21:13;;;;;;;13.30;7.10;;;5.20;99.90;;;-146.47;100.00;66290.13;4949819;29;20271;-81
2020/12/28 09:24:27;;;;;;;29.17;7.30;;;5.40;99.90;;;-146.47;100.00;66290.13;4935484;29;20300;-80
2020/12/28 09:27:11;;;;;;;6.90;4.27;;;5.70;99.90;;;-146.47;100.00;66290.13;4934847;29;20219;-81
2020/12/28 09:29:57;;;;;;;9.33;4.50;;;6.00;99.90;;;-146.47;100.00;66290.13;4946682;29;20211;-78
2020/12/28 09:32:42;;;;;;;6.47;4.30;;;6.30;99.90;;;-146.47;100.00;66290.13;4940997;29;20251;-79
2020/12/28 09:35:27;;;;;;;4.90;3.93;;;6.60;99.90;;;-146.47;100.00;66290.13;4925611;29;20418;-77
2020/12/28 09:38:13;;;;;;;6.80;4.27;;;6.80;99.90;;;-146.47;100.00;66290.13;4920649;29;20290;-80
2020/12/28 09:40:58;;;;;;;6.57;3.87;;;7.10;99.90;;;-146.47;100.00;66290.13;4930284;29;20215;-80
2020/12/28 09:43:44;;;;;;;7.07;3.93;;;7.40;99.90;;;-146.47;100.00;66290.13;4923335;29;20794;-80
2020/12/28 09:46:29;;;;;;;3.87;3.40;;;7.60;99.90;;;-146.47;100.00;66290.13;4928187;29;20658;-80
2020/12/28 09:49:14;;;;;;;5.13;3.77;;;7.80;99.90;;;-146.47;100.00;66290.13;4929400;29;20697;-77
2020/12/28 09:51:59;;;;;;;5.77;3.47;;;8.00;99.90;;;-146.47;100.00;66290.13;4917490;29;20316;-77
2020/12/28 09:54:45;;;;;;;6.07;3.30;;;8.20;99.90;;;-146.47;100.00;66290.13;4918113;29;20242;-77
2020/12/28 09:57:31;;;;;;;4.13;3.40;;;8.40;99.90;;;-146.47;100.00;66290.13;4925870;29;20236;-80
2020/12/28 10:00:17;;;;;;;4.10;3.33;;;8.50;99.90;;;-146.47;100.00;66290.13;4923854;29;20228;-80
2020/12/28 10:03:03;;;;;;;5.80;3.63;;;8.70;99.90;;;-146.47;100.00;66290.13;4926739;29;20371;-80
2020/12/28 10:05:48;;;;;;;3.10;2.80;;;8.80;99.90;;;-146.47;100.00;66290.13;4927956;29;20215;-77
2020/12/28 10:09:15;;;;;;;4.73;3.10;;;9.00;99.90;;;-146.47;100.00;66290.13;4922793;29;20254;-77
2020/12/28 10:12:01;;;;;;;3.20;3.00;;;9.20;99.90;;;-146.47;100.00;66290.13;4912445;29;20212;-78
2020/12/28 10:14:46;;;;;;;3.97;3.03;;;9.40;99.90;;;-146.47;100.00;66290.13;4927377;29;20649;-78
2020/12/28 10:17:31;;;;;;;3.30;2.80;;;9.60;99.90;;;-146.47;100.00;66290.13;4930123;29;20262;-77
2020/12/28 10:20:16;;;;;;;5.20;2.90;;;9.80;99.90;;;-146.47;100.00;66290.13;4927494;29;20219;-77
2020/12/28 10:23:02;;;;;;;2.40;2.20;;;10.00;99.90;;;-146.47;100.00;66290.13;4931310;29;20271;-77
2020/12/28 10:25:47;;;;;;;4.70;2.80;;;10.20;99.90;;;-146.47;100.00;66290.13;4925451;29;20643;-77
2020/12/28 10:28:35;;;;;;;3.97;2.43;;;10.40;99.90;;;-146.47;100.00;66290.13;4930575;29;20210;-77
2020/12/28 10:31:21;;;;;;;4.47;2.63;;;10.50;99.90;;;-146.47;100.00;66290.13;4929017;29;20700;-77
2020/12/28 10:34:06;;;;;;;4.33;2.40;;;10.70;99.90;;;-146.47;100.00;66290.13;4928222;29;20231;-77
2020/12/28 10:36:52;;;;;;;3.80;2.50;;;10.90;99.90;;;-146.47;100.00;66290.13;4925778;29;20212;-78
2020/12/28 10:39:37;;;;;;;2.40;2.20;;;11.00;99.90;;;-146.47;100.00;66290.13;4932347;29;20904;-78
2020/12/28 10:42:22;;;;;;;3.50;2.40;;;11.20;99.90;;;-146.47;100.00;66290.13;4928159;29;20644;-78
2020/12/28 10:45:08;;;;;;;4.50;2.50;;;11.40;99.90;;;-146.47;100.00;66290.13;4930412;29;20629;-78
2020/12/28 10:47:54;;;;;;;2.73;2.20;;;11.60;99.90;;;-146.47;100.00;66290.13;4928799;29;20207;-78
2020/12/28 10:50:39;;;;;;;4.00;2.03;;;11.80;99.90;;;-146.47;100.00;66290.13;4928715;29;20227;-78
2020/12/28 10:53:24;;;;;;;3.73;2.33;;;12.00;99.90;;;-146.47;100.00;66290.13;4931587;29;20230;-78
2020/12/28 10:56:09;;;;;;;3.10;2.30;;;12.20;99.90;;;-146.47;100.00;66290.13;4931526;29;20317;-78
2020/12/28 10:58:57;;;;;;;3.80;2.40;;;12.50;99.90;;;-146.47;100.00;66290.13;4928097;29;20211;-77
2020/12/28 11:01:43;;;;;;;2.90;2.60;;;12.60;99.90;;;-146.47;100.00;66290.13;4931572;29;20294;-77
2020/12/28 11:04:29;;;;;;;2.70;2.50;;;12.70;99.90;;;-146.47;100.00;66290.13;4930785;29;20311;-78
2020/12/28 11:07:14;;;;;;;2.70;2.40;;;12.80;99.90;;;-146.47;100.00;66290.13;4926555;29;20215;-78
2020/12/28 11:09:59;;;;;;;2.50;2.30;;;12.80;99.90;;;-146.47;100.00;66290.13;4929245;29;20219;-78
2020/12/28 11:12:44;;;;;;;3.43;2.30;;;12.80;99.90;;;-146.47;100.00;66290.13;4930764;29;20211;-78
2020/12/28 11:15:29;;;;;;;3.87;1.93;;;12.70;99.90;;;-146.47;100.00;66290.13;4923540;29;20231;-78
2020/12/28 11:18:16;;;;;;;3.73;2.10;;;12.70;99.90;;;-146.47;100.00;66290.13;4921533;29;20219;-79